Terminal Aerodrome Forecast
Issued by NWS Albuquerque, NM

Home | Current Version | Previous Version | Text Only | Print | Product List | Glossary On
Versions: 1 2 3 4 5 6 7 8 9 10 11 12 13 14 15 16 17
000
FTUS45 KABQ 050525
TAFABQ
TAF
KABQ 050525Z 0506/0606 14006KT P6SM SCT060 BKN100
     FM051300 VRB06KT P6SM SCT090 SCT150
     FM051700 23007KT P6SM SCT070 SCT150
     FM052000 21008KT P6SM VCSH BKN080 BKN140
     FM052200 24012KT P6SM VCTS BKN070CB BKN120=

USA.gov is the U.S. government's official web portal to all federal, state and local government web resources and services.